sensor_id;sensor_type;location;lat;lon;timestamp;P1;durP1;ratioP1;P2;durP2;ratioP2
77061;SDS011;65989;51.686;5.138;2023-03-14T00:01:49;8.63;;;2.40;;
77061;SDS011;65989;51.686;5.138;2023-03-14T00:04:15;10.45;;;2.40;;
77061;SDS011;65989;51.686;5.138;2023-03-14T00:06:41;6.17;;;2.13;;
77061;SDS011;65989;51.686;5.138;2023-03-14T00:09:06;10.67;;;2.30;;
77061;SDS011;65989;51.686;5.138;2023-03-14T00:11:32;7.97;;;2.20;;
77061;SDS011;65989;51.686;5.138;2023-03-14T00:13:57;7.60;;;2.17;;
77061;SDS011;65989;51.686;5.138;2023-03-14T00:16:24;9.93;;;2.30;;
77061;SDS011;65989;51.686;5.138;2023-03-14T00:18:50;9.52;;;2.33;;
77061;SDS011;65989;51.686;5.138;2023-03-14T00:21:15;10.70;;;2.40;;
77061;SDS011;65989;51.686;5.138;2023-03-14T00:23:41;10.40;;;2.30;;
77061;SDS011;65989;51.686;5.138;2023-03-14T00:26:11;9.70;;;2.30;;
77061;SDS011;65989;51.686;5.138;2023-03-14T00:28:38;8.65;;;2.45;;
77061;SDS011;65989;51.686;5.138;2023-03-14T00:31:06;5.90;;;2.00;;
77061;SDS011;65989;51.686;5.138;2023-03-14T00:33:32;9.63;;;2.30;;
77061;SDS011;65989;51.686;5.138;2023-03-14T00:35:59;11.10;;;2.10;;
77061;SDS011;65989;51.686;5.138;2023-03-14T00:38:26;6.70;;;1.92;;
77061;SDS011;65989;51.686;5.138;2023-03-14T00:40:52;9.43;;;1.90;;
77061;SDS011;65989;51.686;5.138;2023-03-14T00:43:18;6.80;;;2.28;;
77061;SDS011;65989;51.686;5.138;2023-03-14T00:45:46;11.95;;;2.38;;
77061;SDS011;65989;51.686;5.138;2023-03-14T00:48:12;9.43;;;1.92;;
77061;SDS011;65989;51.686;5.138;2023-03-14T00:50:38;11.87;;;2.63;;
77061;SDS011;65989;51.686;5.138;2023-03-14T00:53:04;10.02;;;2.30;;
77061;SDS011;65989;51.686;5.138;2023-03-14T00:55:29;10.20;;;2.20;;
77061;SDS011;65989;51.686;5.138;2023-03-14T00:57:54;11.30;;;2.77;;
77061;SDS011;65989;51.686;5.138;2023-03-14T01:00:20;9.40;;;2.57;;
77061;SDS011;65989;51.686;5.138;2023-03-14T01:02:45;11.88;;;2.55;;
77061;SDS011;65989;51.686;5.138;2023-03-14T01:05:11;13.20;;;2.40;;
77061;SDS011;65989;51.686;5.138;2023-03-14T01:07:36;11.63;;;2.50;;
77061;SDS011;65989;51.686;5.138;2023-03-14T01:10:02;11.00;;;2.00;;
77061;SDS011;65989;51.686;5.138;2023-03-14T01:12:29;11.97;;;2.53;;
77061;SDS011;65989;51.686;5.138;2023-03-14T01:14:55;8.67;;;1.97;;
77061;SDS011;65989;51.686;5.138;2023-03-14T01:17:20;9.90;;;2.10;;
77061;SDS011;65989;51.686;5.138;2023-03-14T01:19:46;6.35;;;1.77;;
77061;SDS011;65989;51.686;5.138;2023-03-14T01:22:12;13.90;;;2.37;;
77061;SDS011;65989;51.686;5.138;2023-03-14T01:24:37;10.30;;;2.77;;
77061;SDS011;65989;51.686;5.138;2023-03-14T01:27:03;7.60;;;1.98;;
77061;SDS011;65989;51.686;5.138;2023-03-14T01:29:28;10.10;;;2.00;;
77061;SDS011;65989;51.686;5.138;2023-03-14T01:31:53;11.50;;;2.70;;
77061;SDS011;65989;51.686;5.138;2023-03-14T01:34:19;9.30;;;1.67;;
77061;SDS011;65989;51.686;5.138;2023-03-14T01:36:44;8.93;;;1.90;;
77061;SDS011;65989;51.686;5.138;2023-03-14T01:39:09;11.87;;;2.43;;
77061;SDS011;65989;51.686;5.138;2023-03-14T01:41:35;9.47;;;1.83;;
77061;SDS011;65989;51.686;5.138;2023-03-14T01:44:00;12.43;;;2.10;;
77061;SDS011;65989;51.686;5.138;2023-03-14T01:59:32;6.80;;;2.10;;
77061;SDS011;65989;51.686;5.138;2023-03-14T02:01:57;9.83;;;1.90;;
77061;SDS011;65989;51.686;5.138;2023-03-14T02:04:24;8.27;;;1.90;;
77061;SDS011;65989;51.686;5.138;2023-03-14T02:07:01;7.93;;;2.13;;
77061;SDS011;65989;51.686;5.138;2023-03-14T02:09:33;8.55;;;2.50;;
77061;SDS011;65989;51.686;5.138;2023-03-14T02:11:59;10.02;;;2.10;;
77061;SDS011;65989;51.686;5.138;2023-03-14T02:14:27;9.97;;;2.03;;
77061;SDS011;65989;51.686;5.138;2023-03-14T02:16:58;9.63;;;2.70;;
77061;SDS011;65989;51.686;5.138;2023-03-14T02:19:31;8.30;;;2.25;;
77061;SDS011;65989;51.686;5.138;2023-03-14T02:24:41;12.33;;;2.10;;
77061;SDS011;65989;51.686;5.138;2023-03-14T02:27:17;10.55;;;2.10;;
77061;SDS011;65989;51.686;5.138;2023-03-14T02:29:51;10.23;;;2.20;;
77061;SDS011;65989;51.686;5.138;2023-03-14T02:32:20;10.77;;;2.50;;
77061;SDS011;65989;51.686;5.138;2023-03-14T02:34:48;10.30;;;2.30;;
77061;SDS011;65989;51.686;5.138;2023-03-14T02:37:17;8.87;;;2.13;;
77061;SDS011;65989;51.686;5.138;2023-03-14T02:39:45;9.07;;;2.47;;
77061;SDS011;65989;51.686;5.138;2023-03-14T02:42:13;14.88;;;2.60;;
77061;SDS011;65989;51.686;5.138;2023-03-14T02:44:55;9.23;;;2.40;;
77061;SDS011;65989;51.686;5.138;2023-03-14T02:47:29;14.52;;;2.95;;
77061;SDS011;65989;51.686;5.138;2023-03-14T02:50:04;14.20;;;2.70;;
77061;SDS011;65989;51.686;5.138;2023-03-14T02:52:33;11.50;;;2.33;;
77061;SDS011;65989;51.686;5.138;2023-03-14T02:54:58;11.63;;;2.20;;
77061;SDS011;65989;51.686;5.138;2023-03-14T02:57:24;9.03;;;2.13;;
77061;SDS011;65989;51.686;5.138;2023-03-14T02:59:49;12.97;;;2.30;;
77061;SDS011;65989;51.686;5.138;2023-03-14T03:02:15;12.30;;;2.23;;
77061;SDS011;65989;51.686;5.138;2023-03-14T03:04:40;8.73;;;2.17;;
77061;SDS011;65989;51.686;5.138;2023-03-14T03:07:05;14.77;;;2.60;;
77061;SDS011;65989;51.686;5.138;2023-03-14T03:09:31;10.43;;;2.53;;
77061;SDS011;65989;51.686;5.138;2023-03-14T03:11:56;12.73;;;2.80;;
77061;SDS011;65989;51.686;5.138;2023-03-14T03:14:22;13.63;;;2.50;;
77061;SDS011;65989;51.686;5.138;2023-03-14T03:16:47;13.40;;;2.80;;
77061;SDS011;65989;51.686;5.138;2023-03-14T03:19:12;16.67;;;2.97;;
77061;SDS011;65989;51.686;5.138;2023-03-14T03:21:38;9.77;;;2.40;;
77061;SDS011;65989;51.686;5.138;2023-03-14T03:24:04;13.70;;;2.50;;
77061;SDS011;65989;51.686;5.138;2023-03-14T03:26:30;12.80;;;2.30;;
77061;SDS011;65989;51.686;5.138;2023-03-14T03:28:55;18.60;;;3.17;;
77061;SDS011;65989;51.686;5.138;2023-03-14T03:31:21;10.50;;;2.47;;
77061;SDS011;65989;51.686;5.138;2023-03-14T03:33:47;11.18;;;2.25;;
77061;SDS011;65989;51.686;5.138;2023-03-14T03:36:12;13.80;;;2.63;;
77061;SDS011;65989;51.686;5.138;2023-03-14T03:38:37;11.97;;;2.77;;
77061;SDS011;65989;51.686;5.138;2023-03-14T03:41:04;10.37;;;2.50;;
77061;SDS011;65989;51.686;5.138;2023-03-14T03:43:30;7.40;;;2.07;;
77061;SDS011;65989;51.686;5.138;2023-03-14T03:45:56;11.95;;;2.50;;
77061;SDS011;65989;51.686;5.138;2023-03-14T03:48:21;12.33;;;2.07;;
77061;SDS011;65989;51.686;5.138;2023-03-14T03:50:46;11.40;;;2.57;;
77061;SDS011;65989;51.686;5.138;2023-03-14T03:53:12;12.67;;;1.90;;
77061;SDS011;65989;51.686;5.138;2023-03-14T03:55:40;9.90;;;1.95;;
77061;SDS011;65989;51.686;5.138;2023-03-14T03:58:08;11.27;;;2.30;;
77061;SDS011;65989;51.686;5.138;2023-03-14T04:00:33;9.23;;;1.90;;
77061;SDS011;65989;51.686;5.138;2023-03-14T04:02:59;13.30;;;2.27;;
77061;SDS011;65989;51.686;5.138;2023-03-14T04:05:25;8.32;;;1.90;;
77061;SDS011;65989;51.686;5.138;2023-03-14T04:07:51;7.97;;;1.90;;
77061;SDS011;65989;51.686;5.138;2023-03-14T04:10:16;9.77;;;2.00;;
77061;SDS011;65989;51.686;5.138;2023-03-14T04:12:41;10.40;;;1.92;;
77061;SDS011;65989;51.686;5.138;2023-03-14T04:15:07;10.50;;;1.73;;
77061;SDS011;65989;51.686;5.138;2023-03-14T04:17:33;9.48;;;1.90;;
77061;SDS011;65989;51.686;5.138;2023-03-14T04:19:58;10.57;;;1.87;;
77061;SDS011;65989;51.686;5.138;2023-03-14T04:22:24;7.60;;;1.63;;
77061;SDS011;65989;51.686;5.138;2023-03-14T04:24:49;11.27;;;2.20;;
77061;SDS011;65989;51.686;5.138;2023-03-14T04:27:14;8.93;;;1.77;;
77061;SDS011;65989;51.686;5.138;2023-03-14T04:29:41;9.52;;;1.80;;
77061;SDS011;65989;51.686;5.138;2023-03-14T04:32:08;8.23;;;1.97;;
77061;SDS011;65989;51.686;5.138;2023-03-14T04:34:34;7.88;;;2.13;;
77061;SDS011;65989;51.686;5.138;2023-03-14T04:37:00;9.37;;;2.03;;
77061;SDS011;65989;51.686;5.138;2023-03-14T04:39:25;7.73;;;2.07;;
77061;SDS011;65989;51.686;5.138;2023-03-14T04:41:50;9.40;;;2.03;;
77061;SDS011;65989;51.686;5.138;2023-03-14T04:44:17;10.45;;;2.53;;
77061;SDS011;65989;51.686;5.138;2023-03-14T04:46:42;11.13;;;2.30;;
77061;SDS011;65989;51.686;5.138;2023-03-14T04:49:07;9.27;;;2.40;;
77061;SDS011;65989;51.686;5.138;2023-03-14T04:51:33;8.83;;;2.23;;
77061;SDS011;65989;51.686;5.138;2023-03-14T04:53:58;7.47;;;2.00;;
77061;SDS011;65989;51.686;5.138;2023-03-14T04:56:23;8.77;;;2.40;;
77061;SDS011;65989;51.686;5.138;2023-03-14T04:58:49;8.82;;;2.20;;
77061;SDS011;65989;51.686;5.138;2023-03-14T05:01:14;7.90;;;2.10;;
77061;SDS011;65989;51.686;5.138;2023-03-14T05:03:40;8.50;;;2.00;;
77061;SDS011;65989;51.686;5.138;2023-03-14T05:06:05;8.87;;;2.20;;
77061;SDS011;65989;51.686;5.138;2023-03-14T05:08:30;6.30;;;2.00;;
77061;SDS011;65989;51.686;5.138;2023-03-14T05:10:57;5.93;;;2.20;;
77061;SDS011;65989;51.686;5.138;2023-03-14T05:13:23;11.35;;;2.42;;
77061;SDS011;65989;51.686;5.138;2023-03-14T05:15:48;5.30;;;2.20;;
77061;SDS011;65989;51.686;5.138;2023-03-14T05:18:15;6.30;;;2.25;;
77061;SDS011;65989;51.686;5.138;2023-03-14T05:20:41;8.07;;;2.63;;
77061;SDS011;65989;51.686;5.138;2023-03-14T05:23:08;11.38;;;2.78;;
77061;SDS011;65989;51.686;5.138;2023-03-14T05:25:34;6.80;;;2.40;;
77061;SDS011;65989;51.686;5.138;2023-03-14T05:27:59;8.00;;;2.60;;
77061;SDS011;65989;51.686;5.138;2023-03-14T05:30:25;7.77;;;2.67;;
77061;SDS011;65989;51.686;5.138;2023-03-14T05:32:50;9.77;;;2.80;;
77061;SDS011;65989;51.686;5.138;2023-03-14T05:35:15;8.30;;;2.90;;
77061;SDS011;65989;51.686;5.138;2023-03-14T05:37:41;8.75;;;3.05;;
77061;SDS011;65989;51.686;5.138;2023-03-14T05:40:06;9.40;;;3.20;;
77061;SDS011;65989;51.686;5.138;2023-03-14T05:42:33;7.80;;;3.13;;
77061;SDS011;65989;51.686;5.138;2023-03-14T05:44:59;6.00;;;3.00;;
77061;SDS011;65989;51.686;5.138;2023-03-14T05:47:24;9.73;;;3.30;;
77061;SDS011;65989;51.686;5.138;2023-03-14T05:49:50;9.43;;;3.80;;
77061;SDS011;65989;51.686;5.138;2023-03-14T05:52:15;9.87;;;3.40;;
77061;SDS011;65989;51.686;5.138;2023-03-14T05:54:41;8.50;;;3.47;;
77061;SDS011;65989;51.686;5.138;2023-03-14T05:57:07;9.57;;;3.77;;
77061;SDS011;65989;51.686;5.138;2023-03-14T05:59:32;11.50;;;4.10;;
77061;SDS011;65989;51.686;5.138;2023-03-14T06:01:58;13.53;;;4.13;;
77061;SDS011;65989;51.686;5.138;2023-03-14T06:04:23;15.10;;;4.83;;
77061;SDS011;65989;51.686;5.138;2023-03-14T06:06:50;7.25;;;3.80;;
77061;SDS011;65989;51.686;5.138;2023-03-14T06:09:15;9.85;;;4.45;;
77061;SDS011;65989;51.686;5.138;2023-03-14T06:11:41;13.10;;;4.00;;
77061;SDS011;65989;51.686;5.138;2023-03-14T06:14:06;12.40;;;4.50;;
77061;SDS011;65989;51.686;5.138;2023-03-14T06:16:32;10.85;;;4.82;;
77061;SDS011;65989;51.686;5.138;2023-03-14T06:18:57;14.20;;;5.43;;
77061;SDS011;65989;51.686;5.138;2023-03-14T06:21:22;13.90;;;5.13;;
77061;SDS011;65989;51.686;5.138;2023-03-14T06:23:48;13.07;;;5.40;;
77061;SDS011;65989;51.686;5.138;2023-03-14T06:26:13;14.07;;;5.03;;
77061;SDS011;65989;51.686;5.138;2023-03-14T06:28:39;10.50;;;5.00;;
77061;SDS011;65989;51.686;5.138;2023-03-14T06:31:04;9.90;;;5.50;;
77061;SDS011;65989;51.686;5.138;2023-03-14T06:33:30;15.38;;;5.15;;
77061;SDS011;65989;51.686;5.138;2023-03-14T06:35:55;10.03;;;5.27;;
77061;SDS011;65989;51.686;5.138;2023-03-14T06:38:21;9.83;;;5.20;;
77061;SDS011;65989;51.686;5.138;2023-03-14T06:40:46;11.53;;;5.83;;
77061;SDS011;65989;51.686;5.138;2023-03-14T06:43:12;12.82;;;5.80;;
77061;SDS011;65989;51.686;5.138;2023-03-14T06:45:37;10.77;;;5.77;;
77061;SDS011;65989;51.686;5.138;2023-03-14T06:48:03;13.90;;;6.60;;
77061;SDS011;65989;51.686;5.138;2023-03-14T06:50:28;21.60;;;7.18;;
77061;SDS011;65989;51.686;5.138;2023-03-14T06:52:53;12.63;;;3.43;;
77061;SDS011;65989;51.686;5.138;2023-03-14T06:55:19;4.63;;;2.20;;
77061;SDS011;65989;51.686;5.138;2023-03-14T06:57:45;5.95;;;2.30;;
77061;SDS011;65989;51.686;5.138;2023-03-14T07:00:11;9.97;;;2.53;;
77061;SDS011;65989;51.686;5.138;2023-03-14T07:02:37;3.10;;;1.40;;
77061;SDS011;65989;51.686;5.138;2023-03-14T07:05:03;4.33;;;1.37;;
77061;SDS011;65989;51.686;5.138;2023-03-14T07:07:29;3.80;;;1.58;;
77061;SDS011;65989;51.686;5.138;2023-03-14T07:09:54;6.50;;;1.60;;
77061;SDS011;65989;51.686;5.138;2023-03-14T07:12:20;4.70;;;1.23;;
77061;SDS011;65989;51.686;5.138;2023-03-14T07:14:45;3.75;;;1.20;;
77061;SDS011;65989;51.686;5.138;2023-03-14T07:17:10;5.00;;;1.40;;
77061;SDS011;65989;51.686;5.138;2023-03-14T07:19:36;9.93;;;1.70;;
77061;SDS011;65989;51.686;5.138;2023-03-14T07:22:02;4.50;;;1.40;;
77061;SDS011;65989;51.686;5.138;2023-03-14T07:24:29;4.72;;;1.30;;
77061;SDS011;65989;51.686;5.138;2023-03-14T07:26:54;4.53;;;1.50;;
77061;SDS011;65989;51.686;5.138;2023-03-14T07:29:19;4.10;;;1.40;;
77061;SDS011;65989;51.686;5.138;2023-03-14T07:31:45;4.73;;;1.60;;
77061;SDS011;65989;51.686;5.138;2023-03-14T07:34:10;10.50;;;2.10;;
77061;SDS011;65989;51.686;5.138;2023-03-14T07:36:36;4.80;;;2.10;;
77061;SDS011;65989;51.686;5.138;2023-03-14T07:39:01;5.97;;;1.80;;
77061;SDS011;65989;51.686;5.138;2023-03-14T07:41:26;6.77;;;1.87;;
77061;SDS011;65989;51.686;5.138;2023-03-14T07:43:52;5.60;;;1.80;;
77061;SDS011;65989;51.686;5.138;2023-03-14T07:46:17;5.33;;;1.60;;
77061;SDS011;65989;51.686;5.138;2023-03-14T07:48:43;7.37;;;1.80;;
77061;SDS011;65989;51.686;5.138;2023-03-14T07:51:09;3.67;;;1.45;;
77061;SDS011;65989;51.686;5.138;2023-03-14T07:53:34;4.97;;;1.57;;
77061;SDS011;65989;51.686;5.138;2023-03-14T07:55:59;4.77;;;1.40;;
77061;SDS011;65989;51.686;5.138;2023-03-14T07:58:25;4.50;;;1.20;;
77061;SDS011;65989;51.686;5.138;2023-03-14T08:00:51;4.40;;;1.30;;
77061;SDS011;65989;51.686;5.138;2023-03-14T08:03:17;3.78;;;1.55;;
77061;SDS011;65989;51.686;5.138;2023-03-14T08:05:42;5.07;;;1.50;;
77061;SDS011;65989;51.686;5.138;2023-03-14T08:08:07;4.60;;;1.70;;
77061;SDS011;65989;51.686;5.138;2023-03-14T08:10:33;6.80;;;1.80;;
77061;SDS011;65989;51.686;5.138;2023-03-14T08:12:59;4.13;;;1.50;;
77061;SDS011;65989;51.686;5.138;2023-03-14T08:15:25;4.85;;;1.60;;
77061;SDS011;65989;51.686;5.138;2023-03-14T08:17:52;7.27;;;1.50;;
77061;SDS011;65989;51.686;5.138;2023-03-14T08:20:19;7.65;;;1.70;;
77061;SDS011;65989;51.686;5.138;2023-03-14T08:22:45;4.20;;;1.73;;
77061;SDS011;65989;51.686;5.138;2023-03-14T08:25:10;6.23;;;1.77;;
77061;SDS011;65989;51.686;5.138;2023-03-14T08:27:36;7.80;;;1.70;;
77061;SDS011;65989;51.686;5.138;2023-03-14T08:30:04;9.73;;;2.20;;
77061;SDS011;65989;51.686;5.138;2023-03-14T08:32:31;11.30;;;2.15;;
77061;SDS011;65989;51.686;5.138;2023-03-14T08:34:56;7.22;;;1.85;;
77061;SDS011;65989;51.686;5.138;2023-03-14T08:37:22;7.40;;;1.90;;
77061;SDS011;65989;51.686;5.138;2023-03-14T08:39:49;10.45;;;2.03;;
77061;SDS011;65989;51.686;5.138;2023-03-14T08:42:14;7.27;;;1.80;;
77061;SDS011;65989;51.686;5.138;2023-03-14T08:44:40;8.17;;;1.87;;
77061;SDS011;65989;51.686;5.138;2023-03-14T08:47:05;5.73;;;1.90;;
77061;SDS011;65989;51.686;5.138;2023-03-14T08:49:30;10.73;;;2.00;;
77061;SDS011;65989;51.686;5.138;2023-03-14T08:51:56;6.65;;;1.77;;
77061;SDS011;65989;51.686;5.138;2023-03-14T08:54:21;5.50;;;1.77;;
77061;SDS011;65989;51.686;5.138;2023-03-14T08:56:46;8.70;;;1.43;;
77061;SDS011;65989;51.686;5.138;2023-03-14T08:59:12;4.10;;;1.20;;
77061;SDS011;65989;51.686;5.138;2023-03-14T09:01:37;2.57;;;1.27;;
77061;SDS011;65989;51.686;5.138;2023-03-14T09:04:03;4.90;;;1.70;;
77061;SDS011;65989;51.686;5.138;2023-03-14T09:06:28;5.27;;;1.60;;
77061;SDS011;65989;51.686;5.138;2023-03-14T09:08:53;3.20;;;1.30;;
77061;SDS011;65989;51.686;5.138;2023-03-14T09:11:19;4.53;;;1.20;;
77061;SDS011;65989;51.686;5.138;2023-03-14T09:13:44;6.47;;;1.40;;
77061;SDS011;65989;51.686;5.138;2023-03-14T09:16:10;5.15;;;1.35;;
77061;SDS011;65989;51.686;5.138;2023-03-14T09:18:35;2.90;;;1.20;;
77061;SDS011;65989;51.686;5.138;2023-03-14T09:21:01;5.25;;;1.50;;
77061;SDS011;65989;51.686;5.138;2023-03-14T09:23:27;5.50;;;1.60;;
77061;SDS011;65989;51.686;5.138;2023-03-14T09:25:56;4.57;;;1.30;;
77061;SDS011;65989;51.686;5.138;2023-03-14T09:28:22;5.77;;;1.40;;
77061;SDS011;65989;51.686;5.138;2023-03-14T09:30:47;3.10;;;1.30;;
77061;SDS011;65989;51.686;5.138;2023-03-14T09:33:12;3.10;;;1.00;;
77061;SDS011;65989;51.686;5.138;2023-03-14T09:35:38;4.77;;;1.13;;
77061;SDS011;65989;51.686;5.138;2023-03-14T09:38:03;2.00;;;0.97;;
77061;SDS011;65989;51.686;5.138;2023-03-14T09:40:34;3.15;;;1.30;;
77061;SDS011;65989;51.686;5.138;2023-03-14T09:43:01;8.43;;;2.60;;
77061;SDS011;65989;51.686;5.138;2023-03-14T09:45:36;5.40;;;1.40;;
77061;SDS011;65989;51.686;5.138;2023-03-14T09:48:05;5.65;;;1.38;;
77061;SDS011;65989;51.686;5.138;2023-03-14T09:50:39;4.83;;;1.30;;
77061;SDS011;65989;51.686;5.138;2023-03-14T09:53:09;6.88;;;1.42;;
77061;SDS011;65989;51.686;5.138;2023-03-14T09:55:39;3.75;;;1.17;;
77061;SDS011;65989;51.686;5.138;2023-03-14T09:58:11;7.75;;;1.40;;
77061;SDS011;65989;51.686;5.138;2023-03-14T10:00:39;8.75;;;1.58;;
77061;SDS011;65989;51.686;5.138;2023-03-14T10:05:36;9.80;;;1.92;;
77061;SDS011;65989;51.686;5.138;2023-03-14T10:08:01;10.47;;;2.03;;
77061;SDS011;65989;51.686;5.138;2023-03-14T10:10:27;11.87;;;1.80;;
77061;SDS011;65989;51.686;5.138;2023-03-14T10:12:56;14.10;;;2.07;;
77061;SDS011;65989;51.686;5.138;2023-03-14T10:15:34;13.70;;;3.13;;
77061;SDS011;65989;51.686;5.138;2023-03-14T10:18:01;8.90;;;1.80;;
77061;SDS011;65989;51.686;5.138;2023-03-14T10:22:59;16.10;;;2.42;;
77061;SDS011;65989;51.686;5.138;2023-03-14T10:25:30;10.50;;;2.17;;
77061;SDS011;65989;51.686;5.138;2023-03-14T10:27:58;13.80;;;2.20;;
77061;SDS011;65989;51.686;5.138;2023-03-14T10:31:06;16.05;;;2.38;;
77061;SDS011;65989;51.686;5.138;2023-03-14T10:33:22;16.55;;;2.72;;
77061;SDS011;65989;51.686;5.138;2023-03-14T10:38:28;24.67;;;4.37;;
77061;SDS011;65989;51.686;5.138;2023-03-14T10:40:56;15.38;;;2.40;;
77061;SDS011;65989;51.686;5.138;2023-03-14T10:43:24;11.50;;;2.70;;
77061;SDS011;65989;51.686;5.138;2023-03-14T10:45:56;15.43;;;2.47;;
77061;SDS011;65989;51.686;5.138;2023-03-14T10:53:23;19.55;;;2.58;;
77061;SDS011;65989;51.686;5.138;2023-03-14T10:55:50;11.88;;;2.20;;
77061;SDS011;65989;51.686;5.138;2023-03-14T10:58:22;16.47;;;2.83;;
77061;SDS011;65989;51.686;5.138;2023-03-14T11:01:39;14.25;;;2.35;;
77061;SDS011;65989;51.686;5.138;2023-03-14T11:03:58;20.02;;;2.70;;
77061;SDS011;65989;51.686;5.138;2023-03-14T11:11:54;19.08;;;3.75;;
77061;SDS011;65989;51.686;5.138;2023-03-14T11:14:29;18.42;;;3.20;;
77061;SDS011;65989;51.686;5.138;2023-03-14T11:17:11;17.58;;;2.80;;
77061;SDS011;65989;51.686;5.138;2023-03-14T11:22:46;21.30;;;3.10;;
77061;SDS011;65989;51.686;5.138;2023-03-14T11:28:29;18.23;;;2.83;;
77061;SDS011;65989;51.686;5.138;2023-03-14T11:33:41;20.33;;;2.58;;
77061;SDS011;65989;51.686;5.138;2023-03-14T11:39:17;14.00;;;2.38;;
77061;SDS011;65989;51.686;5.138;2023-03-14T11:41:48;23.30;;;2.90;;
77061;SDS011;65989;51.686;5.138;2023-03-14T11:44:24;25.40;;;3.72;;
77061;SDS011;65989;51.686;5.138;2023-03-14T11:49:34;18.30;;;2.73;;
77061;SDS011;65989;51.686;5.138;2023-03-14T11:52:05;17.40;;;2.92;;
77061;SDS011;65989;51.686;5.138;2023-03-14T11:55:00;19.40;;;3.45;;
77061;SDS011;65989;51.686;5.138;2023-03-14T11:57:32;27.42;;;3.28;;
77061;SDS011;65989;51.686;5.138;2023-03-14T12:00:02;17.03;;;3.03;;
77061;SDS011;65989;51.686;5.138;2023-03-14T12:02:45;22.77;;;3.20;;
77061;SDS011;65989;51.686;5.138;2023-03-14T12:05:22;16.13;;;3.10;;
77061;SDS011;65989;51.686;5.138;2023-03-14T12:10:42;25.37;;;2.70;;
77061;SDS011;65989;51.686;5.138;2023-03-14T12:13:13;13.38;;;2.70;;
77061;SDS011;65989;51.686;5.138;2023-03-14T12:15:43;19.20;;;2.90;;
77061;SDS011;65989;51.686;5.138;2023-03-14T12:20:54;27.42;;;2.95;;
77061;SDS011;65989;51.686;5.138;2023-03-14T12:23:22;22.90;;;2.60;;
77061;SDS011;65989;51.686;5.138;2023-03-14T12:26:06;16.38;;;2.58;;
77061;SDS011;65989;51.686;5.138;2023-03-14T12:28:38;14.20;;;2.67;;
77061;SDS011;65989;51.686;5.138;2023-03-14T12:43:10;12.30;;;2.00;;
77061;SDS011;65989;51.686;5.138;2023-03-14T12:47:50;6.80;;;2.08;;
77061;SDS011;65989;51.686;5.138;2023-03-14T12:50:19;6.07;;;1.80;;
77061;SDS011;65989;51.686;5.138;2023-03-14T12:52:53;8.82;;;1.77;;
77061;SDS011;65989;51.686;5.138;2023-03-14T12:58:44;13.35;;;2.10;;
77061;SDS011;65989;51.686;5.138;2023-03-14T13:01:19;13.43;;;2.35;;
77061;SDS011;65989;51.686;5.138;2023-03-14T13:03:50;8.60;;;1.70;;
77061;SDS011;65989;51.686;5.138;2023-03-14T13:11:54;8.02;;;2.10;;
77061;SDS011;65989;51.686;5.138;2023-03-14T13:14:30;10.50;;;2.20;;
77061;SDS011;65989;51.686;5.138;2023-03-14T13:17:00;14.93;;;2.37;;
77061;SDS011;65989;51.686;5.138;2023-03-14T13:19:27;6.18;;;1.65;;
77061;SDS011;65989;51.686;5.138;2023-03-14T13:22:02;10.85;;;1.95;;
77061;SDS011;65989;51.686;5.138;2023-03-14T13:24:32;9.13;;;1.92;;
77061;SDS011;65989;51.686;5.138;2023-03-14T13:26:59;11.82;;;2.20;;
77061;SDS011;65989;51.686;5.138;2023-03-14T13:29:26;10.17;;;2.43;;
77061;SDS011;65989;51.686;5.138;2023-03-14T13:31:54;12.07;;;1.90;;
77061;SDS011;65989;51.686;5.138;2023-03-14T13:34:30;11.27;;;2.17;;
77061;SDS011;65989;51.686;5.138;2023-03-14T13:36:57;11.07;;;2.65;;
77061;SDS011;65989;51.686;5.138;2023-03-14T13:39:24;10.57;;;2.10;;
77061;SDS011;65989;51.686;5.138;2023-03-14T13:41:58;15.07;;;2.22;;
77061;SDS011;65989;51.686;5.138;2023-03-14T13:44:26;13.07;;;2.42;;
77061;SDS011;65989;51.686;5.138;2023-03-14T13:46:58;13.55;;;2.08;;
77061;SDS011;65989;51.686;5.138;2023-03-14T13:49:25;15.73;;;2.10;;
77061;SDS011;65989;51.686;5.138;2023-03-14T13:51:51;7.90;;;2.20;;
77061;SDS011;65989;51.686;5.138;2023-03-14T13:54:18;13.10;;;2.60;;
77061;SDS011;65989;51.686;5.138;2023-03-14T13:56:44;8.47;;;1.90;;
77061;SDS011;65989;51.686;5.138;2023-03-14T13:59:23;11.77;;;1.90;;
77061;SDS011;65989;51.686;5.138;2023-03-14T14:01:49;9.02;;;1.80;;
77061;SDS011;65989;51.686;5.138;2023-03-14T14:04:18;13.15;;;2.05;;
77061;SDS011;65989;51.686;5.138;2023-03-14T14:06:54;8.25;;;2.15;;
77061;SDS011;65989;51.686;5.138;2023-03-14T14:09:24;8.13;;;1.77;;
77061;SDS011;65989;51.686;5.138;2023-03-14T14:12:01;9.52;;;2.17;;
77061;SDS011;65989;51.686;5.138;2023-03-14T14:16:58;9.75;;;2.00;;
77061;SDS011;65989;51.686;5.138;2023-03-14T14:19:27;7.43;;;1.70;;
77061;SDS011;65989;51.686;5.138;2023-03-14T14:21:55;8.87;;;1.60;;
77061;SDS011;65989;51.686;5.138;2023-03-14T14:24:22;9.55;;;2.13;;
77061;SDS011;65989;51.686;5.138;2023-03-14T14:26:51;8.07;;;1.70;;
77061;SDS011;65989;51.686;5.138;2023-03-14T14:29:23;10.20;;;1.70;;
77061;SDS011;65989;51.686;5.138;2023-03-14T14:34:56;16.03;;;2.23;;
77061;SDS011;65989;51.686;5.138;2023-03-14T14:37:21;8.10;;;2.03;;
77061;SDS011;65989;51.686;5.138;2023-03-14T14:39:50;9.38;;;2.13;;
77061;SDS011;65989;51.686;5.138;2023-03-14T14:42:19;8.05;;;1.63;;
77061;SDS011;65989;51.686;5.138;2023-03-14T14:44:49;11.88;;;2.00;;
77061;SDS011;65989;51.686;5.138;2023-03-14T14:47:20;10.90;;;1.63;;
77061;SDS011;65989;51.686;5.138;2023-03-14T14:49:48;14.38;;;2.38;;
77061;SDS011;65989;51.686;5.138;2023-03-14T14:52:18;6.90;;;1.42;;
77061;SDS011;65989;51.686;5.138;2023-03-14T14:54:46;9.98;;;1.90;;
77061;SDS011;65989;51.686;5.138;2023-03-14T14:57:19;7.53;;;1.70;;
77061;SDS011;65989;51.686;5.138;2023-03-14T14:59:48;11.87;;;2.10;;
77061;SDS011;65989;51.686;5.138;2023-03-14T15:05:20;13.70;;;2.13;;
77061;SDS011;65989;51.686;5.138;2023-03-14T15:07:47;7.90;;;1.75;;
77061;SDS011;65989;51.686;5.138;2023-03-14T15:10:14;8.40;;;1.83;;
77061;SDS011;65989;51.686;5.138;2023-03-14T15:12:42;10.13;;;1.58;;
77061;SDS011;65989;51.686;5.138;2023-03-14T15:15:07;9.80;;;1.70;;
77061;SDS011;65989;51.686;5.138;2023-03-14T15:17:34;10.82;;;1.85;;
77061;SDS011;65989;51.686;5.138;2023-03-14T15:20:01;8.43;;;1.55;;
77061;SDS011;65989;51.686;5.138;2023-03-14T15:22:30;14.00;;;1.90;;
77061;SDS011;65989;51.686;5.138;2023-03-14T15:24:56;7.27;;;2.13;;
77061;SDS011;65989;51.686;5.138;2023-03-14T15:27:21;12.23;;;2.00;;
77061;SDS011;65989;51.686;5.138;2023-03-14T15:29:47;11.73;;;2.10;;
77061;SDS011;65989;51.686;5.138;2023-03-14T15:32:13;8.70;;;1.87;;
77061;SDS011;65989;51.686;5.138;2023-03-14T15:34:41;11.43;;;1.65;;
77061;SDS011;65989;51.686;5.138;2023-03-14T15:37:13;7.27;;;1.60;;
77061;SDS011;65989;51.686;5.138;2023-03-14T15:39:43;9.52;;;1.90;;
77061;SDS011;65989;51.686;5.138;2023-03-14T15:42:09;8.30;;;1.83;;
77061;SDS011;65989;51.686;5.138;2023-03-14T15:44:35;9.17;;;1.97;;
77061;SDS011;65989;51.686;5.138;2023-03-14T15:47:00;10.07;;;1.50;;
77061;SDS011;65989;51.686;5.138;2023-03-14T15:49:26;7.77;;;1.90;;
77061;SDS011;65989;51.686;5.138;2023-03-14T15:51:52;10.13;;;2.05;;
77061;SDS011;65989;51.686;5.138;2023-03-14T15:54:17;11.63;;;1.90;;
77061;SDS011;65989;51.686;5.138;2023-03-14T15:56:43;10.70;;;1.83;;
77061;SDS011;65989;51.686;5.138;2023-03-14T15:59:08;12.57;;;2.13;;
77061;SDS011;65989;51.686;5.138;2023-03-14T16:01:33;6.80;;;1.60;;
77061;SDS011;65989;51.686;5.138;2023-03-14T16:03:59;7.67;;;1.90;;
77061;SDS011;65989;51.686;5.138;2023-03-14T16:06:24;9.17;;;1.83;;
77061;SDS011;65989;51.686;5.138;2023-03-14T16:08:50;11.27;;;2.08;;